SPMJK LOWK-LSZR
Flight info
| Callsign | SPMJK |
|---|---|
| Flight time | 0h 53m |
| Altitude | 30000 |
| Route | INGID DCT ERKIR L608 KPT |
| Aircraft | HDJT/L-SABDGRWY/H |
Departure
| Time | 2026-04-21 08:08 |
|---|---|
| Airport | Klagenfurt Airport (LOWK) |
Arrival
| Time | 2026-04-21 09:02 |
|---|---|
| Airport | Sankt Gallen Altenrhein Airport (LSZR) |
| Time | Latitude | Longitude | Altitude | Speed | Heading |
|---|---|---|---|---|---|
| 2026-04-21 08:03 | 46.64866 | 14.32394 | 1475 ft | 0 kts | 256° |
| 2026-04-21 08:06 | 46.64865 | 14.32386 | 1475 ft | 4 kts | 256° |
| 2026-04-21 08:06 | 46.64846 | 14.32363 | 1468 ft | 4 kts | 167° |
| 2026-04-21 08:06 | 46.64806 | 14.32378 | 1475 ft | 8 kts | 166° |
| 2026-04-21 08:06 | 46.64751 | 14.32431 | 1474 ft | 12 kts | 105° |
| 2026-04-21 08:07 | 46.64698 | 14.32482 | 1474 ft | 11 kts | 186° |
| 2026-04-21 08:07 | 46.64614 | 14.32451 | 1467 ft | 15 kts | 197° |
| 2026-04-21 08:07 | 46.64517 | 14.32455 | 1469 ft | 13 kts | 108° |
| 2026-04-21 08:07 | 46.64493 | 14.32572 | 1469 ft | 11 kts | 107° |
| 2026-04-21 08:08 | 46.64419 | 14.32937 | 1469 ft | 78 kts | 106° |
| 2026-04-21 08:08 | 46.64197 | 14.34032 | 1591 ft | 134 kts | 107° |
| 2026-04-21 08:08 | 46.63906 | 14.35408 | 2253 ft | 155 kts | 107° |
| 2026-04-21 08:08 | 46.63584 | 14.36997 | 3037 ft | 172 kts | 104° |
| 2026-04-21 08:09 | 46.63252 | 14.38722 | 3887 ft | 185 kts | 105° |
| 2026-04-21 08:09 | 46.62875 | 14.40594 | 4704 ft | 199 kts | 105° |
| 2026-04-21 08:09 | 46.62468 | 14.42600 | 5475 ft | 214 kts | 105° |
| 2026-04-21 08:09 | 46.62049 | 14.44738 | 6255 ft | 227 kts | 101° |
| 2026-04-21 08:10 | 46.62101 | 14.47015 | 7010 ft | 226 kts | 68° |
| 2026-04-21 08:10 | 46.63017 | 14.48829 | 7779 ft | 225 kts | 34° |
| 2026-04-21 08:10 | 46.64440 | 14.49695 | 8568 ft | 222 kts | 5° |
| 2026-04-21 08:10 | 46.65950 | 14.49381 | 9383 ft | 221 kts | 336° |
| 2026-04-21 08:11 | 46.67183 | 14.48082 | 10180 ft | 223 kts | 319° |
| 2026-04-21 08:11 | 46.68360 | 14.46577 | 10939 ft | 225 kts | 320° |
| 2026-04-21 08:11 | 46.69564 | 14.45089 | 11702 ft | 228 kts | 319° |
| 2026-04-21 08:11 | 46.70779 | 14.43572 | 12485 ft | 231 kts | 319° |
| 2026-04-21 08:12 | 46.72010 | 14.42032 | 13285 ft | 234 kts | 319° |
| 2026-04-21 08:12 | 46.73258 | 14.40472 | 14079 ft | 238 kts | 318° |
| 2026-04-21 08:12 | 46.74502 | 14.38909 | 14809 ft | 239 kts | 317° |
| 2026-04-21 08:12 | 46.75767 | 14.37326 | 15562 ft | 240 kts | 317° |
| 2026-04-21 08:13 | 46.77033 | 14.35732 | 16335 ft | 242 kts | 317° |
| 2026-04-21 08:13 | 46.78314 | 14.34133 | 17126 ft | 243 kts | 316° |
| 2026-04-21 08:13 | 46.79600 | 14.32516 | 17909 ft | 245 kts | 316° |
| 2026-04-21 08:13 | 46.80899 | 14.30883 | 18635 ft | 247 kts | 316° |
| 2026-04-21 08:14 | 46.82185 | 14.29271 | 19349 ft | 247 kts | 316° |
| 2026-04-21 08:14 | 46.83479 | 14.27603 | 20086 ft | 247 kts | 313° |
| 2026-04-21 08:14 | 46.84746 | 14.25885 | 20787 ft | 247 kts | 313° |
| 2026-04-21 08:14 | 46.86000 | 14.24194 | 21481 ft | 248 kts | 313° |
| 2026-04-21 08:15 | 46.87271 | 14.22482 | 22198 ft | 249 kts | 313° |
| 2026-04-21 08:15 | 46.88551 | 14.20752 | 22868 ft | 251 kts | 313° |
| 2026-04-21 08:15 | 46.89405 | 14.19600 | 23339 ft | 251 kts | 313° |
| 2026-04-21 08:15 | 46.90691 | 14.17863 | 23989 ft | 252 kts | 312° |
| 2026-04-21 08:16 | 46.92408 | 14.15536 | 24701 ft | 255 kts | 312° |
| 2026-04-21 08:16 | 46.93278 | 14.14363 | 25043 ft | 256 kts | 312° |
| 2026-04-21 08:16 | 46.94590 | 14.12597 | 25632 ft | 257 kts | 312° |
| 2026-04-21 08:16 | 46.95907 | 14.10806 | 26204 ft | 258 kts | 311° |
| 2026-04-21 08:17 | 46.97231 | 14.09007 | 26740 ft | 260 kts | 311° |
| 2026-04-21 08:17 | 46.98561 | 14.07204 | 27293 ft | 261 kts | 311° |
| 2026-04-21 08:17 | 46.99904 | 14.05389 | 27854 ft | 263 kts | 311° |
| 2026-04-21 08:17 | 47.01248 | 14.03559 | 28424 ft | 264 kts | 311° |
| 2026-04-21 08:18 | 47.02588 | 14.01738 | 28990 ft | 266 kts | 311° |
| 2026-04-21 08:18 | 47.03949 | 13.99885 | 29575 ft | 267 kts | 310° |
| 2026-04-21 08:18 | 47.05318 | 13.98020 | 30071 ft | 271 kts | 310° |
| 2026-04-21 08:18 | 47.06736 | 13.96080 | 30079 ft | 286 kts | 311° |
| 2026-04-21 08:19 | 47.08236 | 13.94033 | 30092 ft | 300 kts | 311° |
| 2026-04-21 08:19 | 47.09801 | 13.91903 | 30096 ft | 312 kts | 311° |
| 2026-04-21 08:19 | 47.11396 | 13.89710 | 30090 ft | 322 kts | 311° |
| 2026-04-21 08:20 | 47.14782 | 13.85101 | 30096 ft | 339 kts | 312° |
| 2026-04-21 08:20 | 47.18297 | 13.80277 | 30098 ft | 352 kts | 312° |
| 2026-04-21 08:21 | 47.21895 | 13.75353 | 30103 ft | 358 kts | 312° |
| 2026-04-21 08:21 | 47.25199 | 13.69922 | 30106 ft | 354 kts | 302° |
| 2026-04-21 08:22 | 47.27512 | 13.63573 | 30113 ft | 354 kts | 290° |
| 2026-04-21 08:22 | 47.28838 | 13.56600 | 30113 ft | 356 kts | 284° |
| 2026-04-21 08:23 | 47.30047 | 13.49557 | 30108 ft | 356 kts | 284° |
| 2026-04-21 08:23 | 47.31215 | 13.42450 | 30105 ft | 356 kts | 284° |
| 2026-04-21 08:24 | 47.32397 | 13.35367 | 30112 ft | 357 kts | 284° |
| 2026-04-21 08:24 | 47.33574 | 13.28221 | 30115 ft | 358 kts | 284° |
| 2026-04-21 08:25 | 47.34743 | 13.21121 | 30116 ft | 358 kts | 284° |
| 2026-04-21 08:25 | 47.35914 | 13.13970 | 30114 ft | 357 kts | 284° |
| 2026-04-21 08:26 | 47.37075 | 13.06866 | 30114 ft | 357 kts | 284° |
| 2026-04-21 08:26 | 47.38232 | 12.99743 | 30120 ft | 358 kts | 284° |
| 2026-04-21 08:27 | 47.39391 | 12.92556 | 30113 ft | 358 kts | 284° |
| 2026-04-21 08:27 | 47.40538 | 12.85443 | 30110 ft | 358 kts | 284° |
| 2026-04-21 08:28 | 47.41681 | 12.78285 | 30109 ft | 355 kts | 284° |
| 2026-04-21 08:28 | 47.42819 | 12.71205 | 30116 ft | 356 kts | 284° |
| 2026-04-21 08:29 | 47.43949 | 12.64071 | 30123 ft | 356 kts | 284° |
| 2026-04-21 08:29 | 47.45076 | 12.56968 | 30115 ft | 356 kts | 284° |
| 2026-04-21 08:30 | 47.46196 | 12.49817 | 30112 ft | 356 kts | 284° |
| 2026-04-21 08:30 | 47.47323 | 12.42672 | 30112 ft | 357 kts | 284° |
| 2026-04-21 08:31 | 47.48436 | 12.35527 | 30114 ft | 357 kts | 284° |
| 2026-04-21 08:31 | 47.49547 | 12.28397 | 30115 ft | 357 kts | 284° |
| 2026-04-21 08:32 | 47.50658 | 12.21223 | 30129 ft | 357 kts | 284° |
| 2026-04-21 08:32 | 47.51757 | 12.14065 | 30120 ft | 358 kts | 284° |
| 2026-04-21 08:33 | 47.52866 | 12.06875 | 30109 ft | 358 kts | 284° |
| 2026-04-21 08:33 | 47.53956 | 11.99687 | 30112 ft | 358 kts | 284° |
| 2026-04-21 08:34 | 47.54964 | 11.92503 | 30121 ft | 358 kts | 283° |
| 2026-04-21 08:34 | 47.55978 | 11.85275 | 30114 ft | 358 kts | 284° |
| 2026-04-21 08:35 | 47.56985 | 11.78077 | 30103 ft | 358 kts | 283° |
| 2026-04-21 08:35 | 47.57993 | 11.70826 | 30098 ft | 359 kts | 283° |
| 2026-04-21 08:36 | 47.58988 | 11.63617 | 30097 ft | 358 kts | 283° |
| 2026-04-21 08:36 | 47.59987 | 11.56417 | 30098 ft | 357 kts | 283° |
| 2026-04-21 08:37 | 47.60973 | 11.49191 | 30101 ft | 357 kts | 283° |
| 2026-04-21 08:37 | 47.61958 | 11.41958 | 30092 ft | 357 kts | 283° |
| 2026-04-21 08:38 | 47.62862 | 11.34776 | 30094 ft | 357 kts | 282° |
| 2026-04-21 08:38 | 47.63749 | 11.27507 | 30087 ft | 356 kts | 282° |
| 2026-04-21 08:39 | 47.64624 | 11.20262 | 30089 ft | 356 kts | 282° |
| 2026-04-21 08:39 | 47.65120 | 11.16155 | 30085 ft | 356 kts | 282° |
| 2026-04-21 08:40 | 47.65984 | 11.08951 | 30085 ft | 355 kts | 282° |
| 2026-04-21 08:40 | 47.66846 | 11.01710 | 30090 ft | 355 kts | 282° |
| 2026-04-21 08:41 | 47.67699 | 10.94517 | 30086 ft | 355 kts | 282° |
| 2026-04-21 08:41 | 47.68554 | 10.87279 | 30101 ft | 355 kts | 282° |
| 2026-04-21 08:42 | 47.69401 | 10.80067 | 30088 ft | 355 kts | 282° |
| 2026-04-21 08:42 | 47.70241 | 10.72827 | 30085 ft | 355 kts | 282° |
| 2026-04-21 08:43 | 47.71081 | 10.65623 | 30085 ft | 355 kts | 282° |
| 2026-04-21 08:43 | 47.71909 | 10.58422 | 30084 ft | 354 kts | 282° |
| 2026-04-21 08:44 | 47.72733 | 10.51232 | 30084 ft | 354 kts | 282° |
| 2026-04-21 08:44 | 47.73548 | 10.44071 | 30091 ft | 354 kts | 282° |
| 2026-04-21 08:45 | 47.73941 | 10.36791 | 30093 ft | 358 kts | 272° |
| 2026-04-21 08:45 | 47.73156 | 10.29400 | 30026 ft | 367 kts | 260° |
| 2026-04-21 08:45 | 47.72307 | 10.25773 | 29835 ft | 373 kts | 256° |
| 2026-04-21 08:46 | 47.71412 | 10.22203 | 29580 ft | 372 kts | 257° |
| 2026-04-21 08:46 | 47.70538 | 10.18561 | 29145 ft | 370 kts | 257° |
| 2026-04-21 08:46 | 47.69658 | 10.14975 | 28717 ft | 367 kts | 256° |
| 2026-04-21 08:46 | 47.68770 | 10.11437 | 28294 ft | 363 kts | 256° |
| 2026-04-21 08:47 | 47.67905 | 10.07980 | 27818 ft | 359 kts | 256° |
| 2026-04-21 08:47 | 47.67063 | 10.04599 | 27266 ft | 337 kts | 256° |
| 2026-04-21 08:47 | 47.66263 | 10.01391 | 26731 ft | 326 kts | 257° |
| 2026-04-21 08:47 | 47.65490 | 9.98247 | 26209 ft | 322 kts | 257° |
| 2026-04-21 08:48 | 47.64716 | 9.95144 | 25707 ft | 320 kts | 256° |
| 2026-04-21 08:48 | 47.63941 | 9.92056 | 25138 ft | 319 kts | 256° |
| 2026-04-21 08:48 | 47.63181 | 9.89019 | 24541 ft | 315 kts | 256° |
| 2026-04-21 08:48 | 47.62420 | 9.85987 | 23923 ft | 312 kts | 256° |
| 2026-04-21 08:49 | 47.61663 | 9.82975 | 23120 ft | 309 kts | 256° |
| 2026-04-21 08:49 | 47.60910 | 9.79989 | 22289 ft | 307 kts | 256° |
| 2026-04-21 08:49 | 47.60176 | 9.77064 | 21489 ft | 306 kts | 255° |
| 2026-04-21 08:49 | 47.59432 | 9.74116 | 20700 ft | 305 kts | 255° |
| 2026-04-21 08:50 | 47.58686 | 9.71178 | 19945 ft | 304 kts | 254° |
| 2026-04-21 08:50 | 47.57945 | 9.68234 | 19201 ft | 303 kts | 254° |
| 2026-04-21 08:50 | 47.57205 | 9.65312 | 18479 ft | 303 kts | 253° |
| 2026-04-21 08:50 | 47.56459 | 9.62387 | 17656 ft | 301 kts | 253° |
| 2026-04-21 08:51 | 47.55737 | 9.59532 | 16865 ft | 298 kts | 253° |
| 2026-04-21 08:51 | 47.55013 | 9.56671 | 16071 ft | 295 kts | 253° |
| 2026-04-21 08:51 | 47.54286 | 9.53837 | 15303 ft | 293 kts | 252° |
| 2026-04-21 08:51 | 47.53585 | 9.51076 | 14551 ft | 279 kts | 253° |
| 2026-04-21 08:52 | 47.52937 | 9.48410 | 13799 ft | 269 kts | 253° |
| 2026-04-21 08:52 | 47.52315 | 9.45867 | 12993 ft | 262 kts | 252° |
| 2026-04-21 08:52 | 47.51688 | 9.43357 | 12236 ft | 256 kts | 252° |
| 2026-04-21 08:52 | 47.51086 | 9.40948 | 11590 ft | 238 kts | 252° |
| 2026-04-21 08:53 | 47.50697 | 9.38727 | 10953 ft | 213 kts | 265° |
| 2026-04-21 08:53 | 47.50685 | 9.36651 | 10313 ft | 192 kts | 277° |
| 2026-04-21 08:53 | 47.50906 | 9.34739 | 9656 ft | 185 kts | 281° |
| 2026-04-21 08:53 | 47.51137 | 9.32886 | 8981 ft | 185 kts | 283° |
| 2026-04-21 08:54 | 47.51377 | 9.30966 | 8352 ft | 190 kts | 279° |
| 2026-04-21 08:54 | 47.51589 | 9.29077 | 7862 ft | 181 kts | 281° |
| 2026-04-21 08:54 | 47.51820 | 9.27264 | 7489 ft | 182 kts | 281° |
| 2026-04-21 08:54 | 47.52055 | 9.25425 | 7199 ft | 182 kts | 281° |
| 2026-04-21 08:55 | 47.52383 | 9.23602 | 6940 ft | 183 kts | 298° |
| 2026-04-21 08:55 | 47.53305 | 9.22325 | 6688 ft | 185 kts | 333° |
| 2026-04-21 08:55 | 47.54540 | 9.21993 | 6442 ft | 185 kts | 7° |
| 2026-04-21 08:55 | 47.55703 | 9.22725 | 6186 ft | 182 kts | 40° |
| 2026-04-21 08:56 | 47.56394 | 9.24253 | 5933 ft | 179 kts | 73° |
| 2026-04-21 08:56 | 47.56425 | 9.26054 | 5674 ft | 176 kts | 103° |
| 2026-04-21 08:56 | 47.55813 | 9.27581 | 5432 ft | 177 kts | 135° |
| 2026-04-21 08:56 | 47.54707 | 9.28401 | 5185 ft | 182 kts | 164° |
| 2026-04-21 08:57 | 47.53521 | 9.28974 | 4978 ft | 174 kts | 140° |
| 2026-04-21 08:57 | 47.52788 | 9.30335 | 4980 ft | 172 kts | 120° |
| 2026-04-21 08:57 | 47.52137 | 9.31764 | 4981 ft | 162 kts | 121° |
| 2026-04-21 08:57 | 47.51517 | 9.33186 | 4977 ft | 163 kts | 116° |
| 2026-04-21 08:58 | 47.51010 | 9.34675 | 4963 ft | 161 kts | 106° |
| 2026-04-21 08:58 | 47.50758 | 9.36316 | 4777 ft | 165 kts | 99° |
| 2026-04-21 08:58 | 47.50561 | 9.37927 | 4479 ft | 160 kts | 98° |
| 2026-04-21 08:58 | 47.50348 | 9.39554 | 4182 ft | 160 kts | 98° |
| 2026-04-21 08:59 | 47.50170 | 9.41184 | 3887 ft | 161 kts | 97° |
| 2026-04-21 08:59 | 47.50000 | 9.42809 | 3597 ft | 156 kts | 97° |
| 2026-04-21 08:59 | 47.49818 | 9.44257 | 3343 ft | 139 kts | 98° |
| 2026-04-21 08:59 | 47.49672 | 9.45606 | 3090 ft | 127 kts | 95° |
| 2026-04-21 09:00 | 47.49529 | 9.46861 | 2857 ft | 121 kts | 96° |
| 2026-04-21 09:00 | 47.49398 | 9.48047 | 2637 ft | 115 kts | 96° |
| 2026-04-21 09:00 | 47.49268 | 9.49184 | 2428 ft | 110 kts | 97° |
| 2026-04-21 09:00 | 47.49143 | 9.50298 | 2222 ft | 112 kts | 97° |
| 2026-04-21 09:01 | 47.49002 | 9.51535 | 2007 ft | 126 kts | 97° |
| 2026-04-21 09:01 | 47.48857 | 9.52819 | 1778 ft | 125 kts | 98° |
| 2026-04-21 09:01 | 47.48720 | 9.54034 | 1553 ft | 116 kts | 98° |
| 2026-04-21 09:01 | 47.48602 | 9.55162 | 1328 ft | 104 kts | 98° |
| 2026-04-21 09:02 | 47.48516 | 9.55966 | 1312 ft | 37 kts | 96° |
| 2026-04-21 09:02 | 47.48507 | 9.56068 | 1310 ft | 7 kts | 158° |
| 2026-04-21 09:02 | 47.48500 | 9.56038 | 1311 ft | 10 kts | 282° |
| 2026-04-21 09:03 | 47.48558 | 9.55559 | 1312 ft | 26 kts | 278° |
| 2026-04-21 09:03 | 47.48582 | 9.55346 | 1312 ft | 14 kts | 288° |
| 2026-04-21 09:03 | 47.48643 | 9.55320 | 1310 ft | 8 kts | 319° |
| 2026-04-21 09:03 | 47.48669 | 9.55251 | 1310 ft | 7 kts | 308° |
| 2026-04-21 09:04 | 47.48695 | 9.55246 | 1310 ft | 5 kts | 2° |
| 2026-04-21 09:04 | 47.48712 | 9.55216 | 1310 ft | 3 kts | 301° |
| 2026-04-21 09:04 | 47.48724 | 9.55215 | 1310 ft | 0 kts | 5° |